sensor_id;sensor_type;location;lat;lon;timestamp;P1;durP1;ratioP1;P2;durP2;ratioP2
4210;SDS011;2119;48.828;12.396;2023-07-28T00:04:44;5.20;;;4.67;;
4210;SDS011;2119;48.828;12.396;2023-07-28T00:09:45;5.23;;;4.83;;
4210;SDS011;2119;48.828;12.396;2023-07-28T00:14:45;7.27;;;5.10;;
4210;SDS011;2119;48.828;12.396;2023-07-28T00:19:45;4.90;;;4.57;;
4210;SDS011;2119;48.828;12.396;2023-07-28T00:24:46;5.28;;;4.88;;
4210;SDS011;2119;48.828;12.396;2023-07-28T00:29:46;5.70;;;5.00;;
4210;SDS011;2119;48.828;12.396;2023-07-28T00:34:46;5.53;;;5.10;;
4210;SDS011;2119;48.828;12.396;2023-07-28T00:39:46;11.88;;;5.20;;
4210;SDS011;2119;48.828;12.396;2023-07-28T00:44:47;6.13;;;5.53;;
4210;SDS011;2119;48.828;12.396;2023-07-28T00:49:47;13.77;;;7.00;;
4210;SDS011;2119;48.828;12.396;2023-07-28T00:54:47;5.85;;;5.35;;
4210;SDS011;2119;48.828;12.396;2023-07-28T00:59:47;5.70;;;4.97;;
4210;SDS011;2119;48.828;12.396;2023-07-28T01:04:48;6.82;;;6.10;;
4210;SDS011;2119;48.828;12.396;2023-07-28T01:09:52;6.03;;;5.40;;
4210;SDS011;2119;48.828;12.396;2023-07-28T01:14:56;6.00;;;5.10;;
4210;SDS011;2119;48.828;12.396;2023-07-28T01:19:57;5.50;;;5.03;;
4210;SDS011;2119;48.828;12.396;2023-07-28T01:25:06;7.60;;;5.20;;
4210;SDS011;2119;48.828;12.396;2023-07-28T01:30:07;6.07;;;5.57;;
4210;SDS011;2119;48.828;12.396;2023-07-28T01:35:08;5.47;;;4.97;;
4210;SDS011;2119;48.828;12.396;2023-07-28T01:40:08;6.27;;;5.77;;
4210;SDS011;2119;48.828;12.396;2023-07-28T01:45:08;8.77;;;5.50;;
4210;SDS011;2119;48.828;12.396;2023-07-28T01:50:09;5.50;;;5.00;;
4210;SDS011;2119;48.828;12.396;2023-07-28T01:55:09;5.15;;;4.72;;
4210;SDS011;2119;48.828;12.396;2023-07-28T02:00:09;5.82;;;4.68;;
4210;SDS011;2119;48.828;12.396;2023-07-28T02:05:10;5.77;;;5.30;;
4210;SDS011;2119;48.828;12.396;2023-07-28T02:10:10;6.03;;;5.00;;
4210;SDS011;2119;48.828;12.396;2023-07-28T02:15:11;5.03;;;4.63;;
4210;SDS011;2119;48.828;12.396;2023-07-28T02:20:11;6.10;;;5.17;;
4210;SDS011;2119;48.828;12.396;2023-07-28T02:25:12;5.00;;;4.60;;
4210;SDS011;2119;48.828;12.396;2023-07-28T02:30:13;6.20;;;5.07;;
4210;SDS011;2119;48.828;12.396;2023-07-28T02:35:13;5.80;;;4.60;;
4210;SDS011;2119;48.828;12.396;2023-07-28T02:40:13;8.90;;;5.20;;
4210;SDS011;2119;48.828;12.396;2023-07-28T02:45:14;5.47;;;4.50;;
4210;SDS011;2119;48.828;12.396;2023-07-28T02:50:14;7.20;;;5.67;;
4210;SDS011;2119;48.828;12.396;2023-07-28T02:55:14;5.30;;;4.90;;
4210;SDS011;2119;48.828;12.396;2023-07-28T03:00:14;6.43;;;5.23;;
4210;SDS011;2119;48.828;12.396;2023-07-28T03:05:15;5.97;;;5.38;;
4210;SDS011;2119;48.828;12.396;2023-07-28T03:10:15;5.83;;;5.07;;
4210;SDS011;2119;48.828;12.396;2023-07-28T03:15:17;5.40;;;5.00;;
4210;SDS011;2119;48.828;12.396;2023-07-28T03:20:17;4.65;;;4.35;;
4210;SDS011;2119;48.828;12.396;2023-07-28T03:25:17;5.13;;;4.67;;
4210;SDS011;2119;48.828;12.396;2023-07-28T03:30:17;4.68;;;4.38;;
4210;SDS011;2119;48.828;12.396;2023-07-28T03:35:18;8.53;;;3.83;;
4210;SDS011;2119;48.828;12.396;2023-07-28T03:40:18;4.05;;;3.65;;
4210;SDS011;2119;48.828;12.396;2023-07-28T03:45:18;8.48;;;4.38;;
4210;SDS011;2119;48.828;12.396;2023-07-28T03:50:18;5.50;;;3.80;;
4210;SDS011;2119;48.828;12.396;2023-07-28T03:55:19;6.40;;;3.60;;
4210;SDS011;2119;48.828;12.396;2023-07-28T04:00:19;5.27;;;3.50;;
4210;SDS011;2119;48.828;12.396;2023-07-28T04:05:19;6.23;;;3.57;;
4210;SDS011;2119;48.828;12.396;2023-07-28T04:10:19;3.97;;;3.73;;
4210;SDS011;2119;48.828;12.396;2023-07-28T04:15:20;4.07;;;3.75;;
4210;SDS011;2119;48.828;12.396;2023-07-28T04:20:20;4.50;;;4.07;;
4210;SDS011;2119;48.828;12.396;2023-07-28T04:25:20;3.60;;;3.30;;
4210;SDS011;2119;48.828;12.396;2023-07-28T04:30:20;3.80;;;3.60;;
4210;SDS011;2119;48.828;12.396;2023-07-28T04:35:21;4.30;;;3.90;;
4210;SDS011;2119;48.828;12.396;2023-07-28T04:40:21;5.20;;;4.40;;
4210;SDS011;2119;48.828;12.396;2023-07-28T04:45:21;4.60;;;4.23;;
4210;SDS011;2119;48.828;12.396;2023-07-28T04:50:21;5.20;;;4.67;;
4210;SDS011;2119;48.828;12.396;2023-07-28T04:55:22;4.90;;;4.45;;
4210;SDS011;2119;48.828;12.396;2023-07-28T05:00:22;5.20;;;4.57;;
4210;SDS011;2119;48.828;12.396;2023-07-28T05:05:22;6.23;;;5.70;;
4210;SDS011;2119;48.828;12.396;2023-07-28T05:10:23;4.50;;;4.20;;
4210;SDS011;2119;48.828;12.396;2023-07-28T05:15:23;5.70;;;4.53;;
4210;SDS011;2119;48.828;12.396;2023-07-28T05:20:23;5.70;;;4.93;;
4210;SDS011;2119;48.828;12.396;2023-07-28T05:25:24;7.10;;;6.13;;
4210;SDS011;2119;48.828;12.396;2023-07-28T05:30:24;7.65;;;5.47;;
4210;SDS011;2119;48.828;12.396;2023-07-28T05:35:24;6.30;;;5.70;;
4210;SDS011;2119;48.828;12.396;2023-07-28T05:40:24;7.60;;;7.00;;
4210;SDS011;2119;48.828;12.396;2023-07-28T05:45:25;5.93;;;5.53;;
4210;SDS011;2119;48.828;12.396;2023-07-28T05:50:25;5.72;;;5.18;;
4210;SDS011;2119;48.828;12.396;2023-07-28T05:55:25;5.88;;;5.00;;
4210;SDS011;2119;48.828;12.396;2023-07-28T06:00:25;4.90;;;4.50;;
4210;SDS011;2119;48.828;12.396;2023-07-28T06:05:26;6.00;;;5.50;;
4210;SDS011;2119;48.828;12.396;2023-07-28T06:10:26;5.00;;;4.53;;
4210;SDS011;2119;48.828;12.396;2023-07-28T06:15:27;5.67;;;5.20;;
4210;SDS011;2119;48.828;12.396;2023-07-28T06:20:27;6.10;;;5.60;;
4210;SDS011;2119;48.828;12.396;2023-07-28T06:25:27;5.43;;;5.00;;
4210;SDS011;2119;48.828;12.396;2023-07-28T06:30:28;4.60;;;4.30;;
4210;SDS011;2119;48.828;12.396;2023-07-28T06:35:28;4.93;;;4.50;;
4210;SDS011;2119;48.828;12.396;2023-07-28T06:40:28;4.73;;;4.33;;
4210;SDS011;2119;48.828;12.396;2023-07-28T06:45:29;4.83;;;4.40;;
4210;SDS011;2119;48.828;12.396;2023-07-28T06:50:29;4.13;;;3.90;;
4210;SDS011;2119;48.828;12.396;2023-07-28T06:55:30;4.60;;;4.20;;
4210;SDS011;2119;48.828;12.396;2023-07-28T07:00:30;6.27;;;4.20;;
4210;SDS011;2119;48.828;12.396;2023-07-28T07:05:30;4.10;;;3.80;;
4210;SDS011;2119;48.828;12.396;2023-07-28T07:10:30;4.00;;;3.50;;
4210;SDS011;2119;48.828;12.396;2023-07-28T07:15:33;4.90;;;3.90;;
4210;SDS011;2119;48.828;12.396;2023-07-28T07:20:35;4.13;;;3.83;;
4210;SDS011;2119;48.828;12.396;2023-07-28T07:25:35;4.43;;;4.13;;
4210;SDS011;2119;48.828;12.396;2023-07-28T07:30:36;4.50;;;4.20;;
4210;SDS011;2119;48.828;12.396;2023-07-28T07:35:36;4.50;;;4.20;;
4210;SDS011;2119;48.828;12.396;2023-07-28T07:40:37;4.53;;;4.23;;
4210;SDS011;2119;48.828;12.396;2023-07-28T07:45:38;4.10;;;3.80;;
4210;SDS011;2119;48.828;12.396;2023-07-28T07:50:38;3.70;;;3.50;;
4210;SDS011;2119;48.828;12.396;2023-07-28T07:55:38;4.40;;;4.10;;
4210;SDS011;2119;48.828;12.396;2023-07-28T08:00:38;4.80;;;4.33;;
4210;SDS011;2119;48.828;12.396;2023-07-28T08:05:39;5.13;;;3.57;;
4210;SDS011;2119;48.828;12.396;2023-07-28T08:10:39;3.72;;;3.53;;
4210;SDS011;2119;48.828;12.396;2023-07-28T08:15:39;3.60;;;3.40;;
4210;SDS011;2119;48.828;12.396;2023-07-28T08:20:39;4.10;;;3.80;;
4210;SDS011;2119;48.828;12.396;2023-07-28T08:25:39;4.47;;;4.10;;
4210;SDS011;2119;48.828;12.396;2023-07-28T08:30:40;3.43;;;3.13;;
4210;SDS011;2119;48.828;12.396;2023-07-28T08:35:40;4.47;;;3.15;;
4210;SDS011;2119;48.828;12.396;2023-07-28T08:40:40;3.30;;;3.00;;
4210;SDS011;2119;48.828;12.396;2023-07-28T08:45:41;5.10;;;3.63;;
4210;SDS011;2119;48.828;12.396;2023-07-28T08:50:41;3.40;;;3.20;;
4210;SDS011;2119;48.828;12.396;2023-07-28T08:55:41;6.78;;;3.30;;
4210;SDS011;2119;48.828;12.396;2023-07-28T09:00:42;3.50;;;3.13;;
4210;SDS011;2119;48.828;12.396;2023-07-28T09:05:44;3.53;;;3.33;;
4210;SDS011;2119;48.828;12.396;2023-07-28T09:10:46;3.00;;;2.80;;
4210;SDS011;2119;48.828;12.396;2023-07-28T09:15:48;3.37;;;3.10;;
4210;SDS011;2119;48.828;12.396;2023-07-28T09:20:49;3.37;;;3.17;;
4210;SDS011;2119;48.828;12.396;2023-07-28T09:25:50;3.30;;;3.07;;
4210;SDS011;2119;48.828;12.396;2023-07-28T09:30:50;3.40;;;3.20;;
4210;SDS011;2119;48.828;12.396;2023-07-28T09:35:50;2.90;;;2.70;;
4210;SDS011;2119;48.828;12.396;2023-07-28T09:40:50;2.97;;;2.70;;
4210;SDS011;2119;48.828;12.396;2023-07-28T09:45:51;3.40;;;3.10;;
4210;SDS011;2119;48.828;12.396;2023-07-28T09:50:51;3.65;;;3.20;;
4210;SDS011;2119;48.828;12.396;2023-07-28T09:55:52;3.73;;;3.40;;
4210;SDS011;2119;48.828;12.396;2023-07-28T10:00:53;3.73;;;3.47;;
4210;SDS011;2119;48.828;12.396;2023-07-28T10:05:53;3.43;;;3.10;;
4210;SDS011;2119;48.828;12.396;2023-07-28T10:10:54;4.13;;;3.83;;
4210;SDS011;2119;48.828;12.396;2023-07-28T10:15:54;3.97;;;3.77;;
4210;SDS011;2119;48.828;12.396;2023-07-28T10:26:03;3.80;;;3.57;;
4210;SDS011;2119;48.828;12.396;2023-07-28T10:31:07;4.03;;;3.73;;
4210;SDS011;2119;48.828;12.396;2023-07-28T10:41:13;4.80;;;4.50;;
4210;SDS011;2119;48.828;12.396;2023-07-28T10:46:17;5.90;;;5.40;;
4210;SDS011;2119;48.828;12.396;2023-07-28T10:56:21;4.67;;;4.37;;
4210;SDS011;2119;48.828;12.396;2023-07-28T11:01:22;4.73;;;4.33;;
4210;SDS011;2119;48.828;12.396;2023-07-28T11:06:25;5.03;;;4.73;;
4210;SDS011;2119;48.828;12.396;2023-07-28T11:11:25;4.60;;;4.30;;
4210;SDS011;2119;48.828;12.396;2023-07-28T11:16:26;4.70;;;4.40;;
4210;SDS011;2119;48.828;12.396;2023-07-28T11:21:26;4.88;;;4.57;;
4210;SDS011;2119;48.828;12.396;2023-07-28T11:26:26;5.80;;;5.40;;
4210;SDS011;2119;48.828;12.396;2023-07-28T11:31:28;4.40;;;4.10;;
4210;SDS011;2119;48.828;12.396;2023-07-28T11:36:29;4.50;;;4.20;;
4210;SDS011;2119;48.828;12.396;2023-07-28T11:41:29;5.10;;;4.70;;
4210;SDS011;2119;48.828;12.396;2023-07-28T11:51:36;4.50;;;4.10;;
4210;SDS011;2119;48.828;12.396;2023-07-28T11:56:37;4.20;;;4.00;;
4210;SDS011;2119;48.828;12.396;2023-07-28T12:01:57;4.60;;;4.20;;
4210;SDS011;2119;48.828;12.396;2023-07-28T12:12:02;3.60;;;3.40;;
4210;SDS011;2119;48.828;12.396;2023-07-28T12:17:14;3.57;;;3.37;;
4210;SDS011;2119;48.828;12.396;2023-07-28T12:22:15;4.37;;;4.07;;
4210;SDS011;2119;48.828;12.396;2023-07-28T12:27:15;4.10;;;3.50;;
4210;SDS011;2119;48.828;12.396;2023-07-28T12:32:16;3.90;;;3.20;;
4210;SDS011;2119;48.828;12.396;2023-07-28T12:37:16;3.77;;;3.57;;
4210;SDS011;2119;48.828;12.396;2023-07-28T12:42:18;3.97;;;3.67;;
4210;SDS011;2119;48.828;12.396;2023-07-28T12:47:20;4.10;;;3.90;;
4210;SDS011;2119;48.828;12.396;2023-07-28T12:52:20;3.83;;;3.53;;
4210;SDS011;2119;48.828;12.396;2023-07-28T12:57:21;6.80;;;3.77;;
4210;SDS011;2119;48.828;12.396;2023-07-28T13:02:21;6.97;;;4.13;;
4210;SDS011;2119;48.828;12.396;2023-07-28T13:07:22;4.40;;;4.10;;
4210;SDS011;2119;48.828;12.396;2023-07-28T13:12:23;2.80;;;2.60;;
4210;SDS011;2119;48.828;12.396;2023-07-28T13:17:23;2.80;;;2.50;;
4210;SDS011;2119;48.828;12.396;2023-07-28T13:22:23;2.27;;;1.60;;
4210;SDS011;2119;48.828;12.396;2023-07-28T13:27:24;1.50;;;1.40;;
4210;SDS011;2119;48.828;12.396;2023-07-28T13:32:25;2.13;;;1.80;;
4210;SDS011;2119;48.828;12.396;2023-07-28T13:37:26;1.80;;;1.70;;
4210;SDS011;2119;48.828;12.396;2023-07-28T13:42:26;2.10;;;1.90;;
4210;SDS011;2119;48.828;12.396;2023-07-28T13:47:26;1.90;;;1.70;;
4210;SDS011;2119;48.828;12.396;2023-07-28T13:52:26;1.77;;;1.63;;
4210;SDS011;2119;48.828;12.396;2023-07-28T13:57:26;1.50;;;1.40;;
4210;SDS011;2119;48.828;12.396;2023-07-28T14:02:27;1.47;;;1.37;;
4210;SDS011;2119;48.828;12.396;2023-07-28T14:07:28;1.60;;;1.50;;
4210;SDS011;2119;48.828;12.396;2023-07-28T14:12:28;2.23;;;1.43;;
4210;SDS011;2119;48.828;12.396;2023-07-28T14:17:28;2.60;;;1.70;;
4210;SDS011;2119;48.828;12.396;2023-07-28T14:22:29;1.30;;;1.10;;
4210;SDS011;2119;48.828;12.396;2023-07-28T14:27:29;1.30;;;1.20;;
4210;SDS011;2119;48.828;12.396;2023-07-28T14:32:29;1.40;;;1.20;;
4210;SDS011;2119;48.828;12.396;2023-07-28T14:37:31;1.20;;;1.10;;
4210;SDS011;2119;48.828;12.396;2023-07-28T14:42:32;1.10;;;1.00;;
4210;SDS011;2119;48.828;12.396;2023-07-28T14:47:32;1.00;;;0.83;;
4210;SDS011;2119;48.828;12.396;2023-07-28T14:52:32;1.00;;;0.80;;
4210;SDS011;2119;48.828;12.396;2023-07-28T14:57:33;1.20;;;1.10;;
4210;SDS011;2119;48.828;12.396;2023-07-28T15:02:33;1.43;;;1.07;;
4210;SDS011;2119;48.828;12.396;2023-07-28T15:07:33;1.17;;;1.07;;
4210;SDS011;2119;48.828;12.396;2023-07-28T15:12:35;1.00;;;0.90;;
4210;SDS011;2119;48.828;12.396;2023-07-28T15:17:35;4.00;;;1.13;;
4210;SDS011;2119;48.828;12.396;2023-07-28T15:22:35;1.10;;;0.90;;
4210;SDS011;2119;48.828;12.396;2023-07-28T15:27:35;1.00;;;0.90;;
4210;SDS011;2119;48.828;12.396;2023-07-28T15:32:36;1.03;;;0.93;;
4210;SDS011;2119;48.828;12.396;2023-07-28T15:37:39;1.30;;;1.00;;
4210;SDS011;2119;48.828;12.396;2023-07-28T15:42:39;1.43;;;1.00;;
4210;SDS011;2119;48.828;12.396;2023-07-28T15:47:39;0.95;;;0.80;;
4210;SDS011;2119;48.828;12.396;2023-07-28T15:52:40;1.10;;;0.87;;
4210;SDS011;2119;48.828;12.396;2023-07-28T15:57:40;1.10;;;1.00;;
4210;SDS011;2119;48.828;12.396;2023-07-28T16:02:40;1.00;;;0.90;;
4210;SDS011;2119;48.828;12.396;2023-07-28T16:07:43;2.23;;;1.33;;
4210;SDS011;2119;48.828;12.396;2023-07-28T16:12:44;1.37;;;1.00;;
4210;SDS011;2119;48.828;12.396;2023-07-28T16:17:44;1.20;;;1.07;;
4210;SDS011;2119;48.828;12.396;2023-07-28T16:22:44;1.33;;;1.23;;
4210;SDS011;2119;48.828;12.396;2023-07-28T16:27:44;1.30;;;1.20;;
4210;SDS011;2119;48.828;12.396;2023-07-28T16:32:44;1.10;;;1.00;;
4210;SDS011;2119;48.828;12.396;2023-07-28T16:37:45;1.40;;;1.30;;
4210;SDS011;2119;48.828;12.396;2023-07-28T16:42:45;1.30;;;1.20;;
4210;SDS011;2119;48.828;12.396;2023-07-28T16:47:45;1.20;;;1.10;;
4210;SDS011;2119;48.828;12.396;2023-07-28T16:52:46;1.50;;;1.40;;
4210;SDS011;2119;48.828;12.396;2023-07-28T16:57:46;1.37;;;1.27;;
4210;SDS011;2119;48.828;12.396;2023-07-28T17:02:46;2.10;;;1.50;;
4210;SDS011;2119;48.828;12.396;2023-07-28T17:07:46;1.40;;;1.30;;
4210;SDS011;2119;48.828;12.396;2023-07-28T17:12:47;1.20;;;1.10;;
4210;SDS011;2119;48.828;12.396;2023-07-28T17:17:47;1.50;;;1.37;;
4210;SDS011;2119;48.828;12.396;2023-07-28T17:22:47;1.80;;;1.70;;
4210;SDS011;2119;48.828;12.396;2023-07-28T17:27:48;2.00;;;1.53;;
4210;SDS011;2119;48.828;12.396;2023-07-28T17:32:49;2.00;;;1.90;;
4210;SDS011;2119;48.828;12.396;2023-07-28T17:37:49;1.73;;;1.40;;
4210;SDS011;2119;48.828;12.396;2023-07-28T17:42:49;1.73;;;1.63;;
4210;SDS011;2119;48.828;12.396;2023-07-28T17:47:50;1.60;;;1.50;;
4210;SDS011;2119;48.828;12.396;2023-07-28T17:52:50;3.40;;;3.20;;
4210;SDS011;2119;48.828;12.396;2023-07-28T17:57:50;5.23;;;3.00;;
4210;SDS011;2119;48.828;12.396;2023-07-28T18:02:51;2.97;;;2.77;;
4210;SDS011;2119;48.828;12.396;2023-07-28T18:07:51;1.77;;;1.67;;
4210;SDS011;2119;48.828;12.396;2023-07-28T18:12:51;1.47;;;1.37;;
4210;SDS011;2119;48.828;12.396;2023-07-28T18:17:51;1.60;;;1.50;;
4210;SDS011;2119;48.828;12.396;2023-07-28T18:22:52;1.87;;;1.67;;
4210;SDS011;2119;48.828;12.396;2023-07-28T18:27:52;1.57;;;1.47;;
4210;SDS011;2119;48.828;12.396;2023-07-28T18:32:55;2.03;;;1.90;;
4210;SDS011;2119;48.828;12.396;2023-07-28T18:37:55;2.07;;;1.97;;
4210;SDS011;2119;48.828;12.396;2023-07-28T18:42:55;2.20;;;2.00;;
4210;SDS011;2119;48.828;12.396;2023-07-28T18:47:55;3.43;;;2.33;;
4210;SDS011;2119;48.828;12.396;2023-07-28T18:52:56;3.47;;;3.17;;
4210;SDS011;2119;48.828;12.396;2023-07-28T18:57:56;3.50;;;3.30;;
4210;SDS011;2119;48.828;12.396;2023-07-28T19:02:56;2.70;;;2.50;;
4210;SDS011;2119;48.828;12.396;2023-07-28T19:07:56;3.33;;;3.08;;
4210;SDS011;2119;48.828;12.396;2023-07-28T19:12:57;2.60;;;2.40;;
4210;SDS011;2119;48.828;12.396;2023-07-28T19:17:58;3.43;;;3.23;;
4210;SDS011;2119;48.828;12.396;2023-07-28T19:22:58;2.77;;;2.57;;
4210;SDS011;2119;48.828;12.396;2023-07-28T19:27:58;2.30;;;2.10;;
4210;SDS011;2119;48.828;12.396;2023-07-28T19:32:58;2.50;;;2.30;;
4210;SDS011;2119;48.828;12.396;2023-07-28T19:37:59;2.10;;;2.00;;
4210;SDS011;2119;48.828;12.396;2023-07-28T19:42:59;2.70;;;2.40;;
4210;SDS011;2119;48.828;12.396;2023-07-28T19:47:59;3.03;;;2.70;;
4210;SDS011;2119;48.828;12.396;2023-07-28T19:53:00;2.13;;;1.93;;
4210;SDS011;2119;48.828;12.396;2023-07-28T19:58:00;2.83;;;1.97;;
4210;SDS011;2119;48.828;12.396;2023-07-28T20:03:03;2.37;;;2.17;;
4210;SDS011;2119;48.828;12.396;2023-07-28T20:08:03;2.97;;;2.50;;
4210;SDS011;2119;48.828;12.396;2023-07-28T20:13:04;2.30;;;2.20;;
4210;SDS011;2119;48.828;12.396;2023-07-28T20:18:04;2.87;;;2.67;;
4210;SDS011;2119;48.828;12.396;2023-07-28T20:23:06;2.70;;;2.50;;
4210;SDS011;2119;48.828;12.396;2023-07-28T20:28:07;2.87;;;2.67;;
4210;SDS011;2119;48.828;12.396;2023-07-28T20:33:07;2.47;;;2.27;;
4210;SDS011;2119;48.828;12.396;2023-07-28T20:38:08;3.00;;;2.80;;
4210;SDS011;2119;48.828;12.396;2023-07-28T20:43:09;3.37;;;2.23;;
4210;SDS011;2119;48.828;12.396;2023-07-28T20:48:09;2.90;;;2.70;;
4210;SDS011;2119;48.828;12.396;2023-07-28T20:53:11;3.83;;;2.67;;
4210;SDS011;2119;48.828;12.396;2023-07-28T20:58:11;3.00;;;2.80;;
4210;SDS011;2119;48.828;12.396;2023-07-28T21:03:11;3.25;;;2.50;;
4210;SDS011;2119;48.828;12.396;2023-07-28T21:08:12;3.40;;;3.20;;
4210;SDS011;2119;48.828;12.396;2023-07-28T21:13:13;3.20;;;3.00;;
4210;SDS011;2119;48.828;12.396;2023-07-28T21:18:16;3.67;;;3.47;;
4210;SDS011;2119;48.828;12.396;2023-07-28T21:23:17;3.27;;;3.00;;
4210;SDS011;2119;48.828;12.396;2023-07-28T21:28:17;3.13;;;2.93;;
4210;SDS011;2119;48.828;12.396;2023-07-28T21:33:18;3.13;;;2.93;;
4210;SDS011;2119;48.828;12.396;2023-07-28T21:38:18;3.72;;;3.53;;
4210;SDS011;2119;48.828;12.396;2023-07-28T21:43:18;5.63;;;4.10;;
4210;SDS011;2119;48.828;12.396;2023-07-28T21:48:20;3.63;;;3.42;;
4210;SDS011;2119;48.828;12.396;2023-07-28T21:53:20;3.50;;;3.30;;
4210;SDS011;2119;48.828;12.396;2023-07-28T21:58:21;4.00;;;3.60;;
4210;SDS011;2119;48.828;12.396;2023-07-28T22:03:22;3.60;;;3.40;;
4210;SDS011;2119;48.828;12.396;2023-07-28T22:08:22;3.55;;;3.35;;
4210;SDS011;2119;48.828;12.396;2023-07-28T22:13:23;3.70;;;3.40;;
4210;SDS011;2119;48.828;12.396;2023-07-28T22:18:23;3.83;;;3.53;;
4210;SDS011;2119;48.828;12.396;2023-07-28T22:23:23;4.23;;;3.93;;
4210;SDS011;2119;48.828;12.396;2023-07-28T22:28:23;3.20;;;2.97;;
4210;SDS011;2119;48.828;12.396;2023-07-28T22:33:24;3.43;;;2.43;;
4210;SDS011;2119;48.828;12.396;2023-07-28T22:38:25;5.60;;;2.60;;
4210;SDS011;2119;48.828;12.396;2023-07-28T22:43:25;2.60;;;2.20;;
4210;SDS011;2119;48.828;12.396;2023-07-28T22:48:26;3.50;;;3.20;;
4210;SDS011;2119;48.828;12.396;2023-07-28T22:53:27;3.50;;;3.30;;
4210;SDS011;2119;48.828;12.396;2023-07-28T22:58:27;4.53;;;4.23;;
4210;SDS011;2119;48.828;12.396;2023-07-28T23:03:28;3.60;;;3.30;;
4210;SDS011;2119;48.828;12.396;2023-07-28T23:08:28;3.90;;;3.60;;
4210;SDS011;2119;48.828;12.396;2023-07-28T23:13:28;4.30;;;3.95;;
4210;SDS011;2119;48.828;12.396;2023-07-28T23:18:28;5.07;;;4.13;;
4210;SDS011;2119;48.828;12.396;2023-07-28T23:23:29;4.13;;;3.83;;
4210;SDS011;2119;48.828;12.396;2023-07-28T23:28:29;4.23;;;3.83;;
4210;SDS011;2119;48.828;12.396;2023-07-28T23:33:29;4.07;;;3.77;;
4210;SDS011;2119;48.828;12.396;2023-07-28T23:38:31;4.43;;;4.13;;
4210;SDS011;2119;48.828;12.396;2023-07-28T23:43:31;4.00;;;3.80;;
4210;SDS011;2119;48.828;12.396;2023-07-28T23:48:32;3.77;;;3.43;;
4210;SDS011;2119;48.828;12.396;2023-07-28T23:53:32;4.23;;;3.30;;
4210;SDS011;2119;48.828;12.396;2023-07-28T23:58:33;6.70;;;3.53;;
